sensor_id;sensor_type;location;lat;lon;timestamp;pressure;altitude;pressure_sealevel;temperature;humidity
66486;BME280;53303;47.476;8.084;2023-05-21T00:01:02;94881.16;;;21.34;48.19
66486;BME280;53303;47.476;8.084;2023-05-21T00:03:28;94875.59;;;21.34;48.05
66486;BME280;53303;47.476;8.084;2023-05-21T00:05:57;94868.53;;;21.33;48.06
66486;BME280;53303;47.476;8.084;2023-05-21T00:08:22;94863.00;;;21.33;47.90
66486;BME280;53303;47.476;8.084;2023-05-21T00:10:48;94866.50;;;21.34;48.04
66486;BME280;53303;47.476;8.084;2023-05-21T00:13:14;94861.72;;;21.34;47.95
66486;BME280;53303;47.476;8.084;2023-05-21T00:15:39;94864.50;;;21.34;47.86
66486;BME280;53303;47.476;8.084;2023-05-21T00:18:05;94847.50;;;21.24;48.03
66486;BME280;53303;47.476;8.084;2023-05-21T00:20:33;94849.75;;;21.26;47.92
66486;BME280;53303;47.476;8.084;2023-05-21T00:22:59;94849.44;;;21.29;47.92
66486;BME280;53303;47.476;8.084;2023-05-21T00:25:29;94858.97;;;21.34;47.91
66486;BME280;53303;47.476;8.084;2023-05-21T00:27:54;94851.38;;;21.35;47.96
66486;BME280;53303;47.476;8.084;2023-05-21T00:30:22;94851.16;;;21.33;47.88
66486;BME280;53303;47.476;8.084;2023-05-21T00:32:50;94846.66;;;21.29;47.86
66486;BME280;53303;47.476;8.084;2023-05-21T00:35:18;94852.63;;;21.34;47.87
66486;BME280;53303;47.476;8.084;2023-05-21T00:37:44;94850.63;;;21.34;47.86
66486;BME280;53303;47.476;8.084;2023-05-21T00:40:09;94850.41;;;21.32;47.95
66486;BME280;53303;47.476;8.084;2023-05-21T00:42:36;94845.38;;;21.30;47.96
66486;BME280;53303;47.476;8.084;2023-05-21T00:45:06;94845.38;;;21.30;47.76
66486;BME280;53303;47.476;8.084;2023-05-21T00:47:31;94847.84;;;21.34;48.04
66486;BME280;53303;47.476;8.084;2023-05-21T00:49:57;94840.38;;;21.29;47.90
66486;BME280;53303;47.476;8.084;2023-05-21T00:52:23;94845.59;;;21.33;47.79
66486;BME280;53303;47.476;8.084;2023-05-21T00:54:54;94838.34;;;21.29;47.84
66486;BME280;53303;47.476;8.084;2023-05-21T00:57:29;94839.38;;;21.26;47.82
66486;BME280;53303;47.476;8.084;2023-05-21T00:59:59;94847.84;;;21.34;47.74
66486;BME280;53303;47.476;8.084;2023-05-21T01:02:25;94852.09;;;21.35;47.91
66486;BME280;53303;47.476;8.084;2023-05-21T01:04:53;94845.81;;;21.35;47.66
66486;BME280;53303;47.476;8.084;2023-05-21T01:07:19;94835.34;;;21.27;47.99
66486;BME280;53303;47.476;8.084;2023-05-21T01:09:47;94847.09;;;21.34;47.92
66486;BME280;53303;47.476;8.084;2023-05-21T01:12:12;94839.31;;;21.32;47.72
66486;BME280;53303;47.476;8.084;2023-05-21T01:14:38;94844.31;;;21.34;47.80
66486;BME280;53303;47.476;8.084;2023-05-21T01:17:05;94831.31;;;21.28;47.89
66486;BME280;53303;47.476;8.084;2023-05-21T01:19:34;94846.56;;;21.35;47.74
66486;BME280;53303;47.476;8.084;2023-05-21T01:22:03;94838.03;;;21.33;47.74
66486;BME280;53303;47.476;8.084;2023-05-21T01:24:29;94836.75;;;21.34;47.73
66486;BME280;53303;47.476;8.084;2023-05-21T01:26:55;94832.25;;;21.31;47.76
66486;BME280;53303;47.476;8.084;2023-05-21T01:29:22;94821.69;;;21.29;47.82
66486;BME280;53303;47.476;8.084;2023-05-21T01:35:03;94830.53;;;21.28;47.74
66486;BME280;53303;47.476;8.084;2023-05-21T01:37:44;94823.94;;;21.31;47.80
66486;BME280;53303;47.476;8.084;2023-05-21T01:40:25;94817.28;;;21.21;47.59
66486;BME280;53303;47.476;8.084;2023-05-21T01:42:54;94809.72;;;21.21;47.69
66486;BME280;53303;47.476;8.084;2023-05-21T01:45:21;94807.16;;;21.23;47.75
66486;BME280;53303;47.476;8.084;2023-05-21T01:47:49;94817.44;;;21.28;48.00
66486;BME280;53303;47.476;8.084;2023-05-21T01:50:17;94823.41;;;21.33;47.89
66486;BME280;53303;47.476;8.084;2023-05-21T01:52:54;94809.41;;;21.25;47.82
66486;BME280;53303;47.476;8.084;2023-05-21T01:55:22;94816.34;;;21.32;47.85
66486;BME280;53303;47.476;8.084;2023-05-21T01:57:53;94815.81;;;21.33;47.75
66486;BME280;53303;47.476;8.084;2023-05-21T02:00:20;94803.31;;;21.26;47.75
66486;BME280;53303;47.476;8.084;2023-05-21T02:02:46;94811.00;;;21.34;47.64
66486;BME280;53303;47.476;8.084;2023-05-21T02:05:12;94813.03;;;21.33;47.68
66486;BME280;53303;47.476;8.084;2023-05-21T02:07:38;94808.03;;;21.32;47.80
66486;BME280;53303;47.476;8.084;2023-05-21T02:10:08;94809.53;;;21.33;47.75
66486;BME280;53303;47.476;8.084;2023-05-21T02:12:34;94811.78;;;21.34;47.70
66486;BME280;53303;47.476;8.084;2023-05-21T02:14:59;94811.78;;;21.34;47.82
66486;BME280;53303;47.476;8.084;2023-05-21T02:17:25;94810.28;;;21.33;47.67
66486;BME280;53303;47.476;8.084;2023-05-21T02:19:50;94801.31;;;21.27;47.91
66486;BME280;53303;47.476;8.084;2023-05-21T02:22:18;94805.47;;;21.34;47.68
66486;BME280;53303;47.476;8.084;2023-05-21T02:24:44;94790.53;;;21.23;47.77
66486;BME280;53303;47.476;8.084;2023-05-21T02:27:12;94804.72;;;21.33;47.50
66486;BME280;53303;47.476;8.084;2023-05-21T02:29:38;94802.69;;;21.34;47.66
66486;BME280;53303;47.476;8.084;2023-05-21T02:32:04;94802.16;;;21.35;47.74
66486;BME280;53303;47.476;8.084;2023-05-21T02:34:29;94794.47;;;21.28;47.78
66486;BME280;53303;47.476;8.084;2023-05-21T02:36:56;94784.22;;;21.23;47.71
66486;BME280;53303;47.476;8.084;2023-05-21T02:39:23;94799.50;;;21.29;47.64
66486;BME280;53303;47.476;8.084;2023-05-21T02:41:48;94804.94;;;21.35;47.61
66486;BME280;53303;47.476;8.084;2023-05-21T02:44:14;94804.19;;;21.35;47.66
66486;BME280;53303;47.476;8.084;2023-05-21T02:46:39;94804.19;;;21.35;47.76
66486;BME280;53303;47.476;8.084;2023-05-21T02:49:05;94806.97;;;21.35;47.64
66486;BME280;53303;47.476;8.084;2023-05-21T02:51:30;94806.97;;;21.35;47.73
66486;BME280;53303;47.476;8.084;2023-05-21T02:53:56;94812.53;;;21.35;47.82
66486;BME280;53303;47.476;8.084;2023-05-21T02:56:23;94815.28;;;21.35;47.45
66486;BME280;53303;47.476;8.084;2023-05-21T02:58:50;94805.69;;;21.36;47.95
66486;BME280;53303;47.476;8.084;2023-05-21T03:01:16;94802.16;;;21.35;47.57
66486;BME280;53303;47.476;8.084;2023-05-21T03:03:41;94805.69;;;21.36;47.72
66486;BME280;53303;47.476;8.084;2023-05-21T03:06:07;94809.22;;;21.36;47.45
66486;BME280;53303;47.476;8.084;2023-05-21T03:08:34;94803.66;;;21.36;47.60
66486;BME280;53303;47.476;8.084;2023-05-21T03:11:00;94803.97;;;21.33;47.58
66486;BME280;53303;47.476;8.084;2023-05-21T03:13:26;94804.19;;;21.35;47.72
66486;BME280;53303;47.476;8.084;2023-05-21T03:15:51;94811.78;;;21.34;47.65
66486;BME280;53303;47.476;8.084;2023-05-21T03:18:23;94804.41;;;21.37;47.69
66486;BME280;53303;47.476;8.084;2023-05-21T03:20:48;94800.22;;;21.30;47.84
66486;BME280;53303;47.476;8.084;2023-05-21T03:23:14;94806.44;;;21.36;47.66
66486;BME280;53303;47.476;8.084;2023-05-21T03:25:40;94804.28;;;21.29;47.70
66486;BME280;53303;47.476;8.084;2023-05-21T03:28:05;94810.28;;;21.33;47.69
66486;BME280;53303;47.476;8.084;2023-05-21T03:30:31;94804.50;;;21.31;47.81
66486;BME280;53303;47.476;8.084;2023-05-21T03:32:57;94816.81;;;21.36;47.73
66486;BME280;53303;47.476;8.084;2023-05-21T03:35:24;94790.84;;;21.20;47.63
66486;BME280;53303;47.476;8.084;2023-05-21T03:37:49;94816.81;;;21.36;47.69
66486;BME280;53303;47.476;8.084;2023-05-21T03:40:14;94814.34;;;21.32;47.52
66486;BME280;53303;47.476;8.084;2023-05-21T03:42:40;94824.59;;;21.37;47.47
66486;BME280;53303;47.476;8.084;2023-05-21T03:45:06;94817.00;;;21.38;47.60
66486;BME280;53303;47.476;8.084;2023-05-21T03:47:32;94821.38;;;21.33;47.45
66486;BME280;53303;47.476;8.084;2023-05-21T03:49:58;94826.59;;;21.37;47.65
66486;BME280;53303;47.476;8.084;2023-05-21T03:52:23;94827.38;;;21.37;47.65
66486;BME280;53303;47.476;8.084;2023-05-21T03:54:48;94823.19;;;21.30;47.51
66486;BME280;53303;47.476;8.084;2023-05-21T03:57:16;94834.94;;;21.37;47.73
66486;BME280;53303;47.476;8.084;2023-05-21T03:59:42;94830.88;;;21.38;47.76
66486;BME280;53303;47.476;8.084;2023-05-21T04:02:09;94839.22;;;21.38;47.50
66486;BME280;53303;47.476;8.084;2023-05-21T04:04:35;94835.03;;;21.31;47.47
66486;BME280;53303;47.476;8.084;2023-05-21T04:07:01;94832.69;;;21.35;47.70
66486;BME280;53303;47.476;8.084;2023-05-21T04:09:29;94843.03;;;21.35;47.39
66486;BME280;53303;47.476;8.084;2023-05-21T04:11:54;94839.53;;;21.34;47.77
66486;BME280;53303;47.476;8.084;2023-05-21T04:14:20;94832.25;;;21.31;47.50
66486;BME280;53303;47.476;8.084;2023-05-21T04:16:46;94848.28;;;21.38;47.50
66486;BME280;53303;47.476;8.084;2023-05-21T04:19:13;94848.28;;;21.38;47.64
66486;BME280;53303;47.476;8.084;2023-05-21T04:21:39;94851.78;;;21.39;47.54
66486;BME280;53303;47.476;8.084;2023-05-21T04:24:09;94845.91;;;21.29;47.32
66486;BME280;53303;47.476;8.084;2023-05-21T04:26:34;94851.38;;;21.35;47.63
66486;BME280;53303;47.476;8.084;2023-05-21T04:29:00;94853.09;;;21.38;47.51
66486;BME280;53303;47.476;8.084;2023-05-21T04:31:32;94860.91;;;21.39;47.55
66486;BME280;53303;47.476;8.084;2023-05-21T04:33:57;94861.41;;;21.38;47.65
66486;BME280;53303;47.476;8.084;2023-05-21T04:36:23;94869.22;;;21.39;47.38
66486;BME280;53303;47.476;8.084;2023-05-21T04:38:49;94868.44;;;21.39;47.45
66486;BME280;53303;47.476;8.084;2023-05-21T04:41:14;94863.22;;;21.35;47.51
66486;BME280;53303;47.476;8.084;2023-05-21T04:43:45;94853.94;;;21.33;47.60
66486;BME280;53303;47.476;8.084;2023-05-21T04:46:10;94865.25;;;21.35;47.59
66486;BME280;53303;47.476;8.084;2023-05-21T04:48:36;94873.25;;;21.38;47.65
66486;BME280;53303;47.476;8.084;2023-05-21T04:51:01;94876.78;;;21.39;47.67
66486;BME280;53303;47.476;8.084;2023-05-21T04:53:29;94879.56;;;21.39;47.49
66486;BME280;53303;47.476;8.084;2023-05-21T04:55:55;94879.56;;;21.39;47.38
66486;BME280;53303;47.476;8.084;2023-05-21T04:58:26;94868.34;;;21.31;47.60
66486;BME280;53303;47.476;8.084;2023-05-21T05:00:52;94874.56;;;21.37;47.66
66486;BME280;53303;47.476;8.084;2023-05-21T05:03:17;94876.78;;;21.39;47.62
66486;BME280;53303;47.476;8.084;2023-05-21T05:05:43;94886.59;;;21.40;47.44
66486;BME280;53303;47.476;8.084;2023-05-21T05:08:08;94884.34;;;21.38;47.45
66486;BME280;53303;47.476;8.084;2023-05-21T05:10:34;94868.34;;;21.31;47.33
66486;BME280;53303;47.476;8.084;2023-05-21T05:12:59;94883.09;;;21.39;47.49
66486;BME280;53303;47.476;8.084;2023-05-21T05:15:27;94878.38;;;21.34;47.66
66486;BME280;53303;47.476;8.084;2023-05-21T05:17:52;94881.59;;;21.38;47.46
66486;BME280;53303;47.476;8.084;2023-05-21T05:20:18;94878.28;;;21.40;47.44
66486;BME280;53303;47.476;8.084;2023-05-21T05:22:46;94887.88;;;21.39;47.43
66486;BME280;53303;47.476;8.084;2023-05-21T05:25:11;94864.03;;;21.30;47.35
66486;BME280;53303;47.476;8.084;2023-05-21T05:27:37;94884.34;;;21.38;47.59
66486;BME280;53303;47.476;8.084;2023-05-21T05:30:06;94853.44;;;21.15;47.60
66486;BME280;53303;47.476;8.084;2023-05-21T05:32:31;94870.78;;;21.35;47.55
66486;BME280;53303;47.476;8.084;2023-05-21T05:34:59;94855.81;;;21.24;47.33
66486;BME280;53303;47.476;8.084;2023-05-21T05:37:24;94885.34;;;21.41;47.55
66486;BME280;53303;47.476;8.084;2023-05-21T05:39:50;94883.09;;;21.39;47.51
66486;BME280;53303;47.476;8.084;2023-05-21T05:42:15;94870.06;;;21.34;47.53
66486;BME280;53303;47.476;8.084;2023-05-21T05:44:40;94885.88;;;21.39;47.63
66486;BME280;53303;47.476;8.084;2023-05-21T05:47:06;94876.88;;;21.33;47.42
66486;BME280;53303;47.476;8.084;2023-05-21T05:49:35;94869.06;;;21.32;47.36
66486;BME280;53303;47.476;8.084;2023-05-21T05:52:00;94884.03;;;21.42;47.48
66486;BME280;53303;47.476;8.084;2023-05-21T05:54:26;94864.28;;;21.32;47.52
66486;BME280;53303;47.476;8.084;2023-05-21T05:56:51;94862.25;;;21.33;47.56
66486;BME280;53303;47.476;8.084;2023-05-21T05:59:16;94870.16;;;21.42;47.61
66486;BME280;53303;47.476;8.084;2023-05-21T06:01:42;94876.47;;;21.42;47.46
66486;BME280;53303;47.476;8.084;2023-05-21T06:04:07;94862.47;;;21.35;47.68
66486;BME280;53303;47.476;8.084;2023-05-21T06:06:34;94871.22;;;21.39;47.58
66486;BME280;53303;47.476;8.084;2023-05-21T06:09:03;94872.00;;;21.39;47.58
66486;BME280;53303;47.476;8.084;2023-05-21T06:11:28;94869.97;;;21.40;47.57
66486;BME280;53303;47.476;8.084;2023-05-21T06:13:54;94869.97;;;21.40;47.65
66486;BME280;53303;47.476;8.084;2023-05-21T06:16:20;94865.91;;;21.41;47.44
66486;BME280;53303;47.476;8.084;2023-05-21T06:18:47;94864.41;;;21.40;47.68
66486;BME280;53303;47.476;8.084;2023-05-21T06:21:13;94865.69;;;21.39;47.33
66486;BME280;53303;47.476;8.084;2023-05-21T06:23:38;94854.34;;;21.37;47.67
66486;BME280;53303;47.476;8.084;2023-05-21T06:26:04;94870.38;;;21.44;47.63
66486;BME280;53303;47.476;8.084;2023-05-21T06:28:29;94866.22;;;21.37;47.57
66486;BME280;53303;47.476;8.084;2023-05-21T06:30:55;94868.69;;;21.41;47.44
66486;BME280;53303;47.476;8.084;2023-05-21T06:33:20;94871.16;;;21.44;47.70
66486;BME280;53303;47.476;8.084;2023-05-21T06:35:48;94869.13;;;21.45;47.36
66486;BME280;53303;47.476;8.084;2023-05-21T06:38:16;94866.34;;;21.45;47.72
66486;BME280;53303;47.476;8.084;2023-05-21T06:40:41;94863.81;;;21.47;47.82
66486;BME280;53303;47.476;8.084;2023-05-21T06:43:08;94851.78;;;21.39;48.23
66486;BME280;53303;47.476;8.084;2023-05-21T06:45:36;94857.81;;;21.43;48.37
66486;BME280;53303;47.476;8.084;2023-05-21T06:48:01;94858.53;;;21.43;48.51
66486;BME280;53303;47.476;8.084;2023-05-21T06:50:27;94867.53;;;21.49;48.83
66486;BME280;53303;47.476;8.084;2023-05-21T06:52:54;94863.06;;;21.46;48.74
66486;BME280;53303;47.476;8.084;2023-05-21T06:55:20;94871.09;;;21.50;49.05
66486;BME280;53303;47.476;8.084;2023-05-21T06:57:45;94870.00;;;21.53;48.78
66486;BME280;53303;47.476;8.084;2023-05-21T07:00:11;94874.06;;;21.52;48.66
66486;BME280;53303;47.476;8.084;2023-05-21T07:02:39;94866.66;;;21.41;48.67
66486;BME280;53303;47.476;8.084;2023-05-21T07:05:05;94885.72;;;21.51;48.74
66486;BME280;53303;47.476;8.084;2023-05-21T07:07:30;94880.91;;;21.51;48.89
66486;BME280;53303;47.476;8.084;2023-05-21T07:09:55;94881.41;;;21.49;48.85
66486;BME280;53303;47.476;8.084;2023-05-21T07:12:21;94874.97;;;21.41;48.84
66486;BME280;53303;47.476;8.084;2023-05-21T07:14:46;94886.75;;;21.47;48.55
66486;BME280;53303;47.476;8.084;2023-05-21T07:17:14;94870.69;;;21.40;48.67
66486;BME280;53303;47.476;8.084;2023-05-21T07:19:39;94884.19;;;21.49;48.65
66486;BME280;53303;47.476;8.084;2023-05-21T07:22:05;94874.75;;;21.39;48.87
66486;BME280;53303;47.476;8.084;2023-05-21T07:24:30;94888.47;;;21.51;48.63
66486;BME280;53303;47.476;8.084;2023-05-21T07:26:56;94878.97;;;21.46;48.56
66486;BME280;53303;47.476;8.084;2023-05-21T07:29:26;94880.16;;;21.51;48.78
66486;BME280;53303;47.476;8.084;2023-05-21T07:31:51;94872.22;;;21.41;48.73
66486;BME280;53303;47.476;8.084;2023-05-21T07:34:16;94881.41;;;21.49;48.74
66486;BME280;53303;47.476;8.084;2023-05-21T07:36:42;94882.19;;;21.50;48.66
66486;BME280;53303;47.476;8.084;2023-05-21T07:39:07;94871.91;;;21.45;48.75
66486;BME280;53303;47.476;8.084;2023-05-21T07:41:33;94878.13;;;21.51;48.66
66486;BME280;53303;47.476;8.084;2023-05-21T07:46:26;94868.91;;;21.43;48.77
66486;BME280;53303;47.476;8.084;2023-05-21T07:48:54;94871.69;;;21.43;48.70
66486;BME280;53303;47.476;8.084;2023-05-21T07:51:20;94882.19;;;21.50;48.41
66486;BME280;53303;47.476;8.084;2023-05-21T07:53:46;94875.88;;;21.49;48.67
66486;BME280;53303;47.476;8.084;2023-05-21T07:56:11;94881.22;;;21.47;48.49
66486;BME280;53303;47.476;8.084;2023-05-21T07:58:36;94868.63;;;21.46;48.66
66486;BME280;53303;47.476;8.084;2023-05-21T08:01:04;94881.88;;;21.54;48.61
66486;BME280;53303;47.476;8.084;2023-05-21T08:03:30;94873.84;;;21.50;48.51
66486;BME280;53303;47.476;8.084;2023-05-21T08:05:56;94881.66;;;21.52;48.79
66486;BME280;53303;47.476;8.084;2023-05-21T08:08:21;94869.38;;;21.47;48.53
66486;BME280;53303;47.476;8.084;2023-05-21T08:10:49;94873.41;;;21.46;48.47
66486;BME280;53303;47.476;8.084;2023-05-21T08:13:15;94885.38;;;21.54;48.55
66486;BME280;53303;47.476;8.084;2023-05-21T08:15:43;94890.94;;;21.54;48.36
66486;BME280;53303;47.476;8.084;2023-05-21T08:18:11;94868.63;;;21.46;48.51
66486;BME280;53303;47.476;8.084;2023-05-21T08:20:37;94885.38;;;21.54;48.59
66486;BME280;53303;47.476;8.084;2023-05-21T08:23:02;94873.66;;;21.48;48.40
66486;BME280;53303;47.476;8.084;2023-05-21T08:25:28;94883.34;;;21.55;48.36
66486;BME280;53303;47.476;8.084;2023-05-21T08:27:54;94873.09;;;21.49;48.47
66486;BME280;53303;47.476;8.084;2023-05-21T08:30:19;94847.09;;;21.34;48.55
66486;BME280;53303;47.476;8.084;2023-05-21T08:32:46;94873.03;;;21.55;48.48
66486;BME280;53303;47.476;8.084;2023-05-21T08:35:16;94876.53;;;21.56;48.47
66486;BME280;53303;47.476;8.084;2023-05-21T08:37:44;94883.56;;;21.57;48.63
66486;BME280;53303;47.476;8.084;2023-05-21T08:40:10;94884.34;;;21.57;48.77
66486;BME280;53303;47.476;8.084;2023-05-21T08:42:47;94867.00;;;21.51;48.39
66486;BME280;53303;47.476;8.084;2023-05-21T08:45:16;94867.47;;;21.55;48.46
66486;BME280;53303;47.476;8.084;2023-05-21T08:47:54;94868.41;;;21.58;48.35
66486;BME280;53303;47.476;8.084;2023-05-21T08:50:21;94866.38;;;21.58;48.40
66486;BME280;53303;47.476;8.084;2023-05-21T08:52:47;94871.94;;;21.58;48.30
66486;BME280;53303;47.476;8.084;2023-05-21T08:55:14;94875.47;;;21.59;48.58
66486;BME280;53303;47.476;8.084;2023-05-21T08:57:42;94877.50;;;21.58;48.46
66486;BME280;53303;47.476;8.084;2023-05-21T09:00:09;94873.97;;;21.58;48.35
66486;BME280;53303;47.476;8.084;2023-05-21T09:02:38;94875.47;;;21.59;48.38
66486;BME280;53303;47.476;8.084;2023-05-21T09:05:08;94876.22;;;21.59;48.47
66486;BME280;53303;47.476;8.084;2023-05-21T09:10:13;94881.78;;;21.59;48.35
66486;BME280;53303;47.476;8.084;2023-05-21T09:12:39;94878.00;;;21.57;48.42
66486;BME280;53303;47.476;8.084;2023-05-21T09:15:05;94885.81;;;21.58;48.58
66486;BME280;53303;47.476;8.084;2023-05-21T09:20:09;94885.09;;;21.58;48.27
66486;BME280;53303;47.476;8.084;2023-05-21T09:22:40;94877.69;;;21.60;48.46
66486;BME280;53303;47.476;8.084;2023-05-21T09:25:10;94879.22;;;21.61;48.25
66486;BME280;53303;47.476;8.084;2023-05-21T09:27:35;94869.63;;;21.62;48.34
66486;BME280;53303;47.476;8.084;2023-05-21T09:30:03;94873.13;;;21.63;48.37
66486;BME280;53303;47.476;8.084;2023-05-21T09:32:31;94857.09;;;21.56;48.49
66486;BME280;53303;47.476;8.084;2023-05-21T09:35:05;94856.13;;;21.53;48.27
66486;BME280;53303;47.476;8.084;2023-05-21T09:37:32;94857.63;;;21.54;48.48
66486;BME280;53303;47.476;8.084;2023-05-21T09:40:08;94859.78;;;21.61;48.39
66486;BME280;53303;47.476;8.084;2023-05-21T09:42:34;94872.59;;;21.64;48.29
66486;BME280;53303;47.476;8.084;2023-05-21T09:44:59;94861.59;;;21.59;48.00
66486;BME280;53303;47.476;8.084;2023-05-21T09:47:25;94866.28;;;21.64;48.32
66486;BME280;53303;47.476;8.084;2023-05-21T09:49:50;94868.31;;;21.63;48.38
66486;BME280;53303;47.476;8.084;2023-05-21T09:52:25;94858.16;;;21.53;48.28
66486;BME280;53303;47.476;8.084;2023-05-21T09:54:52;94865.84;;;21.60;48.28
66486;BME280;53303;47.476;8.084;2023-05-21T09:57:24;94860.53;;;21.62;48.28
66486;BME280;53303;47.476;8.084;2023-05-21T09:59:50;94862.56;;;21.61;48.21
66486;BME280;53303;47.476;8.084;2023-05-21T10:02:22;94857.00;;;21.61;48.06
66486;BME280;53303;47.476;8.084;2023-05-21T10:04:51;94857.75;;;21.62;48.18
66486;BME280;53303;47.476;8.084;2023-05-21T10:07:20;94837.47;;;21.54;48.14
66486;BME280;53303;47.476;8.084;2023-05-21T10:09:52;94859.25;;;21.63;48.26
66486;BME280;53303;47.476;8.084;2023-05-21T10:12:21;94832.53;;;21.46;48.21
66486;BME280;53303;47.476;8.084;2023-05-21T10:14:50;94844.28;;;21.53;48.22
66486;BME280;53303;47.476;8.084;2023-05-21T10:17:18;94857.00;;;21.61;48.22
66486;BME280;53303;47.476;8.084;2023-05-21T10:19:45;94855.72;;;21.62;48.22
66486;BME280;53303;47.476;8.084;2023-05-21T10:22:12;94854.75;;;21.60;48.45
66486;BME280;53303;47.476;8.084;2023-05-21T10:24:39;94856.47;;;21.63;48.46
66486;BME280;53303;47.476;8.084;2023-05-21T10:27:06;94857.00;;;21.61;48.48
66486;BME280;53303;47.476;8.084;2023-05-21T10:29:32;94854.97;;;21.62;48.31
66486;BME280;53303;47.476;8.084;2023-05-21T10:32:01;94856.47;;;21.63;48.41
66486;BME280;53303;47.476;8.084;2023-05-21T10:34:28;94846.75;;;21.56;48.37
66486;BME280;53303;47.476;8.084;2023-05-21T10:37:00;94852.19;;;21.62;48.27
66486;BME280;53303;47.476;8.084;2023-05-21T10:39:30;94859.25;;;21.63;48.21
66486;BME280;53303;47.476;8.084;2023-05-21T10:55:45;94845.47;;;21.57;48.09
66486;BME280;53303;47.476;8.084;2023-05-21T11:01:12;94838.09;;;21.60;48.34
66486;BME280;53303;47.476;8.084;2023-05-21T11:03:39;94836.94;;;21.55;48.33
66486;BME280;53303;47.476;8.084;2023-05-21T11:06:05;94834.69;;;21.54;48.46
66486;BME280;53303;47.476;8.084;2023-05-21T11:08:31;94852.97;;;21.62;48.09
66486;BME280;53303;47.476;8.084;2023-05-21T11:11:00;94848.88;;;21.63;48.17
66486;BME280;53303;47.476;8.084;2023-05-21T11:13:27;94835.53;;;21.62;48.14
66486;BME280;53303;47.476;8.084;2023-05-21T11:21:16;94838.53;;;21.64;48.31
66486;BME280;53303;47.476;8.084;2023-05-21T11:23:58;94833.28;;;21.60;48.15
66486;BME280;53303;47.476;8.084;2023-05-21T11:26:58;94821.88;;;21.64;48.11
66486;BME280;53303;47.476;8.084;2023-05-21T11:29:17;94827.97;;;21.62;48.15
66486;BME280;53303;47.476;8.084;2023-05-21T11:31:48;94825.19;;;21.62;48.08
66486;BME280;53303;47.476;8.084;2023-05-21T11:34:23;94825.63;;;21.66;47.99
66486;BME280;53303;47.476;8.084;2023-05-21T11:39:46;94823.91;;;21.63;48.25
66486;BME280;53303;47.476;8.084;2023-05-21T11:42:31;94828.72;;;21.63;48.15
66486;BME280;53303;47.476;8.084;2023-05-21T11:45:02;94818.66;;;21.60;48.09
66486;BME280;53303;47.476;8.084;2023-05-21T11:47:28;94806.09;;;21.59;47.96
66486;BME280;53303;47.476;8.084;2023-05-21T11:49:58;94828.59;;;21.68;48.14
66486;BME280;53303;47.476;8.084;2023-05-21T11:52:24;94799.34;;;21.54;48.10
66486;BME280;53303;47.476;8.084;2023-05-21T11:54:52;94818.25;;;21.69;48.09
66486;BME280;53303;47.476;8.084;2023-05-21T11:57:23;94812.25;;;21.65;48.07
66486;BME280;53303;47.476;8.084;2023-05-21T11:59:49;94817.50;;;21.68;48.09
66486;BME280;53303;47.476;8.084;2023-05-21T12:02:20;94817.50;;;21.68;48.19
66486;BME280;53303;47.476;8.084;2023-05-21T12:04:49;94815.56;;;21.63;48.13
66486;BME280;53303;47.476;8.084;2023-05-21T12:07:18;94827.34;;;21.70;47.98
66486;BME280;53303;47.476;8.084;2023-05-21T12:09:49;94819.00;;;21.70;48.03
66486;BME280;53303;47.476;8.084;2023-05-21T12:12:19;94821.78;;;21.70;47.98
66486;BME280;53303;47.476;8.084;2023-05-21T12:14:47;94814.94;;;21.71;47.90
66486;BME280;53303;47.476;8.084;2023-05-21T12:17:20;94813.44;;;21.70;47.98
66486;BME280;53303;47.476;8.084;2023-05-21T12:19:47;94819.22;;;21.72;48.04
66486;BME280;53303;47.476;8.084;2023-05-21T12:22:13;94809.16;;;21.68;48.10
66486;BME280;53303;47.476;8.084;2023-05-21T12:24:41;94821.47;;;21.73;48.14
66486;BME280;53303;47.476;8.084;2023-05-21T12:27:08;94806.81;;;21.73;47.94
66486;BME280;53303;47.476;8.084;2023-05-21T12:29:42;94803.81;;;21.71;48.40
66486;BME280;53303;47.476;8.084;2023-05-21T12:32:14;94798.06;;;21.68;47.96
66486;BME280;53303;47.476;8.084;2023-05-21T12:34:53;94791.78;;;21.68;48.00
66486;BME280;53303;47.476;8.084;2023-05-21T12:37:29;94792.50;;;21.68;47.97
66486;BME280;53303;47.476;8.084;2023-05-21T12:40:01;94798.47;;;21.73;48.03
66486;BME280;53303;47.476;8.084;2023-05-21T12:42:30;94804.03;;;21.73;48.03
66486;BME280;53303;47.476;8.084;2023-05-21T12:44:59;94805.00;;;21.75;47.78
66486;BME280;53303;47.476;8.084;2023-05-21T12:47:27;94812.59;;;21.75;48.00
66486;BME280;53303;47.476;8.084;2023-05-21T12:49:56;94815.06;;;21.78;47.92
66486;BME280;53303;47.476;8.084;2023-05-21T12:52:24;94815.28;;;21.80;48.14
66486;BME280;53303;47.476;8.084;2023-05-21T12:54:55;94813.97;;;21.81;48.02
66486;BME280;53303;47.476;8.084;2023-05-21T12:57:24;94819.53;;;21.81;47.94
66486;BME280;53303;47.476;8.084;2023-05-21T12:59:52;94822.50;;;21.83;47.41
66486;BME280;53303;47.476;8.084;2023-05-21T13:02:38;94822.09;;;21.79;47.90
66486;BME280;53303;47.476;8.084;2023-05-21T13:05:05;94820.50;;;21.84;47.86
66486;BME280;53303;47.476;8.084;2023-05-21T13:07:34;94811.53;;;21.78;47.96
66486;BME280;53303;47.476;8.084;2023-05-21T13:10:00;94824.97;;;21.87;48.01
66486;BME280;53303;47.476;8.084;2023-05-21T13:12:30;94818.69;;;21.86;47.68
66486;BME280;53303;47.476;8.084;2023-05-21T13:14:57;94822.44;;;21.89;47.83
66486;BME280;53303;47.476;8.084;2023-05-21T13:17:25;94809.94;;;21.82;47.79
66486;BME280;53303;47.476;8.084;2023-05-21T13:20:10;94821.13;;;21.90;47.89
66486;BME280;53303;47.476;8.084;2023-05-21T13:22:49;94826.16;;;21.92;47.70
66486;BME280;53303;47.476;8.084;2023-05-21T13:25:22;94818.56;;;21.92;47.84
66486;BME280;53303;47.476;8.084;2023-05-21T13:27:50;94813.00;;;21.92;47.70
66486;BME280;53303;47.476;8.084;2023-05-21T13:30:16;94816.22;;;21.96;47.68
66486;BME280;53303;47.476;8.084;2023-05-21T13:32:42;94815.69;;;21.98;47.69
66486;BME280;53303;47.476;8.084;2023-05-21T13:35:08;94815.13;;;21.99;47.79
66486;BME280;53303;47.476;8.084;2023-05-21T13:37:38;94814.59;;;22.01;47.59